createdAt,value
2018-12-06T00:02:17.568Z,13.16
2018-12-06T00:04:53.090Z,13.37
2018-12-06T00:07:28.770Z,13.05
2018-12-06T00:10:04.283Z,13.06
2018-12-06T00:12:39.803Z,13.01
2018-12-06T00:15:26.926Z,13.08
2018-12-06T00:18:02.000Z,12.68
2018-12-06T00:20:37.802Z,12.44
2018-12-06T00:23:13.291Z,12.77
2018-12-06T00:25:49.158Z,12.63
2018-12-06T00:28:24.887Z,12.70
2018-12-06T00:31:01.243Z,12.66
2018-12-06T00:33:36.184Z,12.85
2018-12-06T00:36:14.712Z,12.91
2018-12-06T00:38:51.231Z,13.22
2018-12-06T00:41:27.180Z,13.19
2018-12-06T00:44:04.772Z,12.68
2018-12-06T00:46:40.059Z,12.46
2018-12-06T00:49:15.743Z,13.28
2018-12-06T00:51:51.286Z,13.65
2018-12-06T00:54:27.373Z,13.30
2018-12-06T00:57:02.363Z,13.02
2018-12-06T00:59:37.978Z,12.83
2018-12-06T01:02:13.456Z,12.79
2018-12-06T01:04:49.205Z,12.79
2018-12-06T01:07:24.751Z,13.06
2018-12-06T01:09:59.924Z,13.05
2018-12-06T01:12:36.199Z,13.02
2018-12-06T01:15:11.045Z,13.07
2018-12-06T01:17:46.883Z,12.83
2018-12-06T01:20:21.910Z,12.66
2018-12-06T01:22:57.707Z,12.66
2018-12-06T01:25:33.083Z,12.78
2018-12-06T01:28:08.808Z,12.72
2018-12-06T01:30:44.228Z,12.67
2018-12-06T01:33:19.746Z,12.39
2018-12-06T01:35:55.549Z,12.32
2018-12-06T01:38:30.783Z,11.69
2018-12-06T01:41:06.562Z,11.99
2018-12-06T01:43:42.453Z,12.00
2018-12-06T01:46:17.607Z,11.89
2018-12-06T01:48:53.406Z,11.88
2018-12-06T01:51:29.029Z,12.35
2018-12-06T01:54:04.622Z,12.38
2018-12-06T01:56:41.010Z,12.39
2018-12-06T01:59:16.530Z,12.46
2018-12-06T02:01:53.116Z,12.25
2018-12-06T02:04:28.494Z,12.33
2018-12-06T02:07:04.351Z,12.18
2018-12-06T02:09:39.996Z,12.42
2018-12-06T02:12:15.579Z,12.06
2018-12-06T02:14:51.244Z,12.09
2018-12-06T02:17:26.641Z,12.25
2018-12-06T02:20:02.388Z,12.28
2018-12-06T02:22:37.911Z,12.13
2018-12-06T02:25:13.822Z,12.48
2018-12-06T02:27:49.223Z,12.18
2018-12-06T02:30:26.144Z,12.10
2018-12-06T02:33:01.353Z,11.96
2018-12-06T02:35:36.924Z,12.16
2018-12-06T02:38:12.470Z,12.26
2018-12-06T02:40:48.122Z,12.15
2018-12-06T02:43:23.644Z,12.42
2018-12-06T02:45:59.038Z,12.51
2018-12-06T02:48:34.689Z,12.45
2018-12-06T02:51:10.027Z,12.54
2018-12-06T02:53:45.659Z,12.39
2018-12-06T02:56:20.975Z,12.21
2018-12-06T02:58:56.663Z,12.38
2018-12-06T03:01:31.926Z,12.53
2018-12-06T03:04:07.520Z,12.27
2018-12-06T03:06:43.072Z,12.17
2018-12-06T03:09:20.328Z,12.28
2018-12-06T03:11:55.321Z,12.54
2018-12-06T03:14:31.031Z,12.68
2018-12-06T03:17:06.297Z,12.64
2018-12-06T03:19:42.769Z,12.85
2018-12-06T03:22:18.435Z,13.23
2018-12-06T03:24:54.260Z,13.53
2018-12-06T03:27:30.009Z,13.11
2018-12-06T03:30:06.307Z,13.30
2018-12-06T03:32:41.650Z,13.37
2018-12-06T03:35:17.223Z,13.07
2018-12-06T03:37:52.627Z,12.58
2018-12-06T03:40:28.314Z,12.98
2018-12-06T03:43:03.950Z,12.85
2018-12-06T03:45:39.571Z,12.83
2018-12-06T03:48:15.968Z,12.89
2018-12-06T03:50:51.775Z,12.43
2018-12-06T03:53:27.360Z,12.60
2018-12-06T03:56:02.763Z,12.61
2018-12-06T03:58:38.293Z,12.44
2018-12-06T04:01:13.828Z,12.09
2018-12-06T04:03:49.622Z,12.38
2018-12-06T04:06:25.799Z,12.22
2018-12-06T04:09:01.818Z,12.46
2018-12-06T04:11:37.461Z,12.28
2018-12-06T04:14:12.807Z,12.46
2018-12-06T04:16:48.199Z,12.85
2018-12-06T04:19:24.074Z,13.01
2018-12-06T04:21:59.220Z,12.95
2018-12-06T04:24:36.059Z,12.81
2018-12-06T04:27:17.232Z,12.74
2018-12-06T04:29:52.327Z,12.70
2018-12-06T04:32:27.563Z,12.66
2018-12-06T04:35:03.349Z,12.73
2018-12-06T04:39:51.072Z,12.73
2018-12-06T04:42:26.509Z,12.52
2018-12-06T04:45:03.261Z,12.31
2018-12-06T04:47:39.192Z,12.28
2018-12-06T04:50:14.981Z,12.42
2018-12-06T04:52:50.108Z,12.47
2018-12-06T04:55:25.935Z,12.49
2018-12-06T04:58:01.411Z,12.48
2018-12-06T05:00:38.267Z,12.65
2018-12-06T05:03:13.465Z,12.61
2018-12-06T05:05:49.129Z,12.74
2018-12-06T05:08:25.922Z,12.84
2018-12-06T05:11:01.485Z,12.82
2018-12-06T05:13:37.219Z,12.79
2018-12-06T05:16:12.414Z,12.82
2018-12-06T05:18:47.900Z,12.88
2018-12-06T05:21:23.717Z,12.79
2018-12-06T05:23:59.203Z,12.92
2018-12-06T05:26:34.645Z,13.03
2018-12-06T05:29:11.166Z,13.03
2018-12-06T05:31:46.878Z,13.27
2018-12-06T05:34:26.712Z,13.12
2018-12-06T05:37:01.953Z,12.92
2018-12-06T05:39:37.393Z,12.81
2018-12-06T05:42:13.148Z,12.84
2018-12-06T05:44:48.523Z,13.16
2018-12-06T05:47:24.256Z,13.16
2018-12-06T05:49:59.781Z,13.11
2018-12-06T05:52:35.859Z,13.39
2018-12-06T05:55:10.789Z,13.32
2018-12-06T05:57:48.132Z,13.75
2018-12-06T06:00:24.003Z,13.59
2018-12-06T06:02:59.291Z,13.73
2018-12-06T06:05:34.885Z,13.74
2018-12-06T06:08:10.174Z,13.91
2018-12-06T06:10:45.864Z,13.99
2018-12-06T06:13:21.259Z,13.50
2018-12-06T06:15:56.709Z,13.39
2018-12-06T06:18:32.429Z,13.34
2018-12-06T06:21:08.417Z,13.53
2018-12-06T06:23:43.321Z,13.54
2018-12-06T06:26:18.941Z,13.75
2018-12-06T06:28:54.443Z,13.76
2018-12-06T06:31:30.063Z,13.51
2018-12-06T06:34:05.718Z,13.69
2018-12-06T06:36:41.589Z,13.99
2018-12-06T06:39:16.818Z,13.79
2018-12-06T06:41:52.366Z,13.42
2018-12-06T06:44:28.054Z,13.36
2018-12-06T06:47:04.224Z,13.81
2018-12-06T06:49:40.456Z,14.07
2018-12-06T06:52:17.532Z,14.23
2018-12-06T06:54:56.142Z,14.36
2018-12-06T06:57:32.176Z,14.43
2018-12-06T07:00:08.064Z,14.43
2018-12-06T07:03:01.342Z,14.48
2018-12-06T07:05:37.982Z,14.42
2018-12-06T07:08:13.819Z,14.31
2018-12-06T07:10:49.264Z,14.32
2018-12-06T07:13:25.007Z,14.26
2018-12-06T07:16:00.377Z,14.36
2018-12-06T07:18:36.005Z,14.46
2018-12-06T07:21:11.743Z,14.53
2018-12-06T07:23:47.751Z,14.30
2018-12-06T07:26:25.468Z,14.30
2018-12-06T07:29:00.895Z,14.33
2018-12-06T07:31:36.847Z,14.43
2018-12-06T07:34:12.254Z,14.56
2018-12-06T07:36:47.563Z,14.46
2018-12-06T07:39:23.317Z,14.61
2018-12-06T07:41:58.686Z,14.37
2018-12-06T07:44:35.766Z,14.72
2018-12-06T07:47:10.735Z,14.81
2018-12-06T07:49:46.461Z,14.35
2018-12-06T07:52:23.325Z,14.42
2018-12-06T07:54:58.494Z,14.27
2018-12-06T07:57:34.721Z,14.22
2018-12-06T08:00:12.598Z,14.49
2018-12-06T08:02:50.331Z,14.33
2018-12-06T08:05:26.250Z,14.27
2018-12-06T08:08:04.417Z,14.21
2018-12-06T08:10:41.463Z,14.40
2018-12-06T08:13:18.583Z,14.64
2018-12-06T08:15:54.311Z,14.72
2018-12-06T08:18:29.784Z,15.90
2018-12-06T08:21:05.020Z,15.43
2018-12-06T08:23:40.595Z,15.19
2018-12-06T08:26:17.303Z,14.93
2018-12-06T08:28:52.681Z,14.98
2018-12-06T08:31:28.164Z,16.63
2018-12-06T08:34:07.260Z,16.77
2018-12-06T08:36:42.621Z,15.53
2018-12-06T08:39:19.065Z,15.73
2018-12-06T08:41:55.162Z,15.88
2018-12-06T08:44:33.813Z,15.47
2018-12-06T08:47:09.546Z,16.04
2018-12-06T08:49:46.181Z,15.81
2018-12-06T08:52:25.109Z,16.19
2018-12-06T08:55:02.106Z,16.40
2018-12-06T08:57:38.629Z,16.46
2018-12-06T09:00:20.159Z,16.64
2018-12-06T09:02:58.809Z,16.46
2018-12-06T09:05:35.139Z,16.53
2018-12-06T09:08:11.295Z,16.40
2018-12-06T09:10:51.492Z,16.16
2018-12-06T09:13:25.341Z,16.04
2018-12-06T09:16:01.567Z,16.19
2018-12-06T09:18:38.059Z,16.09
2018-12-06T09:21:15.331Z,16.21
2018-12-06T09:23:51.460Z,16.19
2018-12-06T09:26:27.643Z,16.82
2018-12-06T09:29:04.002Z,16.44
2018-12-06T09:31:41.148Z,16.45
2018-12-06T09:34:16.754Z,16.52
2018-12-06T09:36:54.873Z,16.89
2018-12-06T09:39:33.209Z,16.70
2018-12-06T09:42:14.426Z,16.25
2018-12-06T09:44:53.163Z,16.46
2018-12-06T09:47:34.543Z,16.44
2018-12-06T09:50:10.537Z,16.80
2018-12-06T09:52:48.772Z,17.10
2018-12-06T09:55:25.200Z,16.71
2018-12-06T09:58:02.375Z,16.84
2018-12-06T10:00:38.002Z,16.81
2018-12-06T10:03:15.338Z,17.25
2018-12-06T10:05:58.168Z,17.40
2018-12-06T10:08:35.728Z,17.61
2018-12-06T10:11:11.340Z,17.77
2018-12-06T10:13:49.910Z,17.71
2018-12-06T10:16:26.068Z,17.86
2018-12-06T10:19:02.026Z,18.29
2018-12-06T10:21:38.226Z,17.89
2018-12-06T10:24:24.234Z,18.12
2018-12-06T10:27:10.380Z,18.14
2018-12-06T10:29:47.906Z,18.16
2018-12-06T10:32:25.004Z,17.98
2018-12-06T10:35:09.478Z,17.78
2018-12-06T10:37:57.589Z,17.66
2018-12-06T10:40:37.665Z,18.05
2018-12-06T10:43:16.017Z,17.89
2018-12-06T10:45:53.086Z,18.12
2018-12-06T10:48:31.164Z,18.10
2018-12-06T10:51:22.813Z,18.35
2018-12-06T10:53:59.670Z,18.05
2018-12-06T10:56:37.574Z,18.28
2018-12-06T10:59:14.693Z,18.57
2018-12-06T11:01:59.571Z,18.69
2018-12-06T11:04:36.496Z,18.78
2018-12-06T11:07:14.980Z,18.89
2018-12-06T11:09:53.412Z,19.01
2018-12-06T11:12:31.516Z,19.04
2018-12-06T11:15:12.700Z,19.11
2018-12-06T11:20:43.593Z,18.77
2018-12-06T11:25:55.904Z,19.03
2018-12-06T11:28:36.848Z,17.68
2018-12-06T11:31:18.965Z,18.10
2018-12-06T11:33:57.755Z,18.05
2018-12-06T11:36:35.396Z,17.83
2018-12-06T11:39:11.317Z,17.92
2018-12-06T11:41:47.533Z,18.22
2018-12-06T11:44:27.926Z,17.90
2018-12-06T11:47:06.693Z,17.75
2018-12-06T11:49:44.399Z,17.51
2018-12-06T11:52:22.378Z,18.01
2018-12-06T11:54:59.415Z,18.03
2018-12-06T11:57:35.461Z,17.92
2018-12-06T12:00:11.205Z,18.12
2018-12-06T12:02:47.659Z,18.13
2018-12-06T12:05:26.306Z,18.14
2018-12-06T12:08:05.826Z,18.01
2018-12-06T12:10:42.534Z,18.46
2018-12-06T12:13:20.032Z,18.41
2018-12-06T12:15:56.638Z,18.41
2018-12-06T12:18:34.288Z,18.65
2018-12-06T12:21:16.298Z,18.63
2018-12-06T12:23:57.656Z,18.51
2018-12-06T12:26:38.737Z,18.48
2018-12-06T12:29:15.585Z,18.63
2018-12-06T12:31:59.480Z,18.69
2018-12-06T12:34:36.548Z,18.94
2018-12-06T12:37:20.238Z,19.23
2018-12-06T12:40:01.417Z,18.65
2018-12-06T12:42:40.101Z,18.86
2018-12-06T12:45:18.793Z,18.80
2018-12-06T12:47:56.357Z,19.10
2018-12-06T12:50:33.252Z,19.12
2018-12-06T12:53:15.143Z,19.08
2018-12-06T12:55:53.796Z,19.41
2018-12-06T13:01:27.326Z,19.09
2018-12-06T13:04:04.864Z,19.64
2018-12-06T13:06:46.649Z,18.72
2018-12-06T13:09:30.074Z,18.51
2018-12-06T13:12:07.892Z,18.92
2018-12-06T13:14:48.851Z,18.84
2018-12-06T13:17:26.965Z,18.70
2018-12-06T13:24:39.485Z,18.70
2018-12-06T13:27:16.507Z,18.26
2018-12-06T13:29:53.800Z,18.13
2018-12-06T13:32:34.806Z,18.42
2018-12-06T13:35:13.439Z,18.16
2018-12-06T13:37:52.054Z,18.16
2018-12-06T13:40:32.734Z,17.77
2018-12-06T13:43:14.476Z,17.75
2018-12-06T13:48:49.266Z,17.99
2018-12-06T13:51:30.796Z,18.27
2018-12-06T13:59:39.120Z,18.05
2018-12-06T14:02:18.496Z,17.90
2018-12-06T14:04:55.694Z,17.72
2018-12-06T14:07:31.662Z,17.53
2018-12-06T14:10:07.405Z,17.49
2018-12-06T14:12:53.483Z,17.48
2018-12-06T14:15:29.736Z,17.66
2018-12-06T14:18:16.381Z,17.58
2018-12-06T14:20:56.441Z,17.60
2018-12-06T14:23:36.266Z,17.02
2018-12-06T14:26:18.631Z,16.95
2018-12-06T14:28:58.313Z,16.88
2018-12-06T14:31:44.375Z,17.17
2018-12-06T14:34:42.692Z,17.12
2018-12-06T14:37:25.220Z,16.90
2018-12-06T14:40:08.551Z,16.77
2018-12-06T14:42:52.005Z,17.19
2018-12-06T14:48:33.173Z,17.31
2018-12-06T14:51:17.248Z,17.18
2018-12-06T14:53:55.848Z,17.38
2018-12-06T14:56:33.056Z,17.22
2018-12-06T14:59:10.070Z,17.50
2018-12-06T15:01:47.057Z,17.49
2018-12-06T15:04:29.838Z,17.45
2018-12-06T15:07:11.265Z,17.63
2018-12-06T15:09:46.931Z,17.47
2018-12-06T15:12:23.111Z,17.75
2018-12-06T15:15:07.174Z,17.55
2018-12-06T15:17:50.600Z,17.70
2018-12-06T15:20:31.406Z,17.64
2018-12-06T15:23:08.604Z,17.90
2018-12-06T15:25:44.283Z,17.62
2018-12-06T15:28:25.521Z,17.56
2018-12-06T15:31:02.807Z,17.86
2018-12-06T15:33:39.878Z,17.91
2018-12-06T15:36:16.099Z,17.68
2018-12-06T15:38:51.980Z,17.79
2018-12-06T15:41:30.994Z,17.30
2018-12-06T15:44:06.848Z,17.78
2018-12-06T15:46:42.064Z,17.79
2018-12-06T15:49:18.411Z,17.65
2018-12-06T15:51:57.166Z,17.55
2018-12-06T15:54:33.997Z,17.62
2018-12-06T15:57:11.212Z,17.46
2018-12-06T15:59:50.807Z,17.18
2018-12-06T16:02:38.404Z,17.35
2018-12-06T16:05:16.438Z,17.35
2018-12-06T16:07:59.231Z,17.45
2018-12-06T16:10:37.493Z,17.44
2018-12-06T16:13:14.593Z,17.61
2018-12-06T16:15:53.427Z,17.72
2018-12-06T16:18:32.460Z,17.70
2018-12-06T16:21:12.511Z,17.76
2018-12-06T16:23:55.027Z,17.95
2018-12-06T16:26:35.435Z,18.18
2018-12-06T16:29:13.732Z,17.77
2018-12-06T16:31:50.655Z,17.83
2018-12-06T16:34:27.239Z,17.62
2018-12-06T16:37:03.957Z,17.88
2018-12-06T16:39:39.937Z,17.33
2018-12-06T16:42:16.242Z,17.71
2018-12-06T16:45:01.435Z,17.76
2018-12-06T16:47:36.778Z,17.78
2018-12-06T16:50:15.525Z,17.67
2018-12-06T16:52:52.978Z,17.90
2018-12-06T16:55:40.837Z,18.06
2018-12-06T16:58:22.749Z,17.58
2018-12-06T17:01:00.819Z,17.61
2018-12-06T17:03:42.179Z,17.74
2018-12-06T17:06:21.819Z,17.39
2018-12-06T17:08:58.755Z,17.41
2018-12-06T17:11:43.311Z,17.05
2018-12-06T17:14:18.631Z,16.99
2018-12-06T17:16:54.873Z,16.54
2018-12-06T17:19:33.446Z,16.63
2018-12-06T17:22:09.159Z,16.73
2018-12-06T17:24:47.623Z,16.45
2018-12-06T17:27:29.800Z,16.37
2018-12-06T17:30:16.698Z,16.19
2018-12-06T17:32:57.800Z,16.39
2018-12-06T17:35:36.746Z,16.39
2018-12-06T17:38:13.308Z,16.29
2018-12-06T17:40:48.570Z,16.43
2018-12-06T17:43:25.684Z,16.40
2018-12-06T17:46:01.742Z,16.41
2018-12-06T17:48:40.706Z,16.15
2018-12-06T17:51:23.232Z,16.11
2018-12-06T17:54:03.128Z,15.80
2018-12-06T17:56:41.476Z,16.00
2018-12-06T17:59:19.364Z,15.88
2018-12-06T18:01:55.236Z,15.98
2018-12-06T18:04:34.836Z,16.36
2018-12-06T18:07:11.555Z,16.37
2018-12-06T18:09:47.925Z,16.30
2018-12-06T18:12:28.657Z,16.12
2018-12-06T18:15:13.259Z,16.14
2018-12-06T18:17:50.115Z,16.26
2018-12-06T18:20:26.976Z,15.99
2018-12-06T18:23:04.037Z,16.13
2018-12-06T18:25:40.185Z,16.35
2018-12-06T18:28:18.469Z,16.28
2018-12-06T18:30:56.378Z,16.33
2018-12-06T18:33:33.642Z,16.59
2018-12-06T18:36:10.165Z,16.86
2018-12-06T18:38:49.518Z,16.54
2018-12-06T18:41:24.774Z,16.70
2018-12-06T18:44:01.772Z,16.34
2018-12-06T18:46:38.515Z,16.39
2018-12-06T18:49:15.170Z,16.25
2018-12-06T18:51:52.205Z,15.93
2018-12-06T18:54:28.267Z,16.05
2018-12-06T18:57:05.280Z,16.22
2018-12-06T18:59:40.888Z,16.16
2018-12-06T19:02:16.291Z,16.33
2018-12-06T19:04:52.072Z,16.07
2018-12-06T19:07:33.268Z,15.93
2018-12-06T19:10:16.884Z,16.04
2018-12-06T19:12:58.182Z,16.01
2018-12-06T19:15:35.248Z,16.08
2018-12-06T19:18:14.442Z,16.10
2018-12-06T19:20:52.093Z,16.09
2018-12-06T19:23:28.910Z,16.03
2018-12-06T19:26:07.004Z,15.52
2018-12-06T19:28:48.582Z,16.01
2018-12-06T19:31:38.573Z,15.95
2018-12-06T19:34:20.417Z,16.05
2018-12-06T19:36:58.958Z,16.25
2018-12-06T19:39:35.492Z,15.97
2018-12-06T19:42:13.339Z,16.03
2018-12-06T19:44:50.442Z,16.09
2018-12-06T19:47:26.743Z,16.15
2018-12-06T19:50:06.701Z,16.07
2018-12-06T19:52:42.056Z,16.43
2018-12-06T19:55:21.703Z,16.29
2018-12-06T19:57:59.467Z,16.38
2018-12-06T20:00:38.388Z,16.46
2018-12-06T20:03:17.457Z,16.52
2018-12-06T20:05:54.309Z,16.68
2018-12-06T20:08:33.026Z,16.61
2018-12-06T20:11:15.643Z,16.35
2018-12-06T20:13:52.396Z,16.78
2018-12-06T20:16:29.301Z,16.76
2018-12-06T20:19:06.730Z,17.10
2018-12-06T20:21:47.459Z,17.07
2018-12-06T20:24:27.726Z,16.99
2018-12-06T20:27:04.535Z,16.77
2018-12-06T20:29:41.059Z,17.26
2018-12-06T20:32:16.645Z,17.55
2018-12-06T20:34:55.956Z,17.61
2018-12-06T20:37:36.074Z,17.49
2018-12-06T20:40:13.043Z,17.29
2018-12-06T20:42:50.612Z,17.33
2018-12-06T20:45:28.048Z,17.32
2018-12-06T20:48:05.437Z,17.59
2018-12-06T20:50:49.389Z,17.66
2018-12-06T20:53:24.629Z,17.56
2018-12-06T20:56:02.838Z,17.51
2018-12-06T20:58:40.074Z,17.81
2018-12-06T21:01:16.765Z,17.67
2018-12-06T21:03:53.605Z,17.29
2018-12-06T21:06:31.215Z,18.34
2018-12-06T21:09:08.892Z,17.46
2018-12-06T21:11:47.880Z,17.16
2018-12-06T21:14:25.379Z,16.96
2018-12-06T21:17:02.586Z,17.07
2018-12-06T21:19:38.993Z,16.96
2018-12-06T21:22:16.236Z,16.81
2018-12-06T21:24:53.092Z,16.97
2018-12-06T21:27:29.506Z,16.91
2018-12-06T21:30:08.598Z,16.78
2018-12-06T21:32:45.898Z,16.71
2018-12-06T21:35:22.238Z,16.28
2018-12-06T21:38:05.398Z,16.53
2018-12-06T21:40:42.916Z,16.45
2018-12-06T21:43:25.131Z,16.40
2018-12-06T21:46:02.190Z,16.56
2018-12-06T21:48:40.871Z,16.70
2018-12-06T21:51:20.256Z,16.71
2018-12-06T21:54:02.120Z,16.96
2018-12-06T21:56:44.125Z,16.64
2018-12-06T21:59:21.164Z,16.52
2018-12-06T22:02:07.100Z,16.65
2018-12-06T22:04:42.168Z,16.55
2018-12-06T22:07:22.346Z,16.68
2018-12-06T22:10:02.298Z,17.00
2018-12-06T22:12:44.279Z,16.86
2018-12-06T22:15:24.507Z,17.08
2018-12-06T22:18:05.188Z,17.14
2018-12-06T22:20:45.826Z,17.30
2018-12-06T22:23:29.208Z,17.84
2018-12-06T22:26:06.422Z,17.86
2018-12-06T22:28:44.745Z,17.70
2018-12-06T22:31:23.212Z,17.93
2018-12-06T22:33:58.693Z,18.23
2018-12-06T22:36:35.303Z,18.23
2018-12-06T22:39:20.731Z,18.54
2018-12-06T22:41:58.100Z,18.39
2018-12-06T22:44:34.911Z,18.40
2018-12-06T22:47:13.886Z,18.45
2018-12-06T22:49:51.723Z,18.43
2018-12-06T22:52:29.995Z,18.53
2018-12-06T22:55:06.437Z,18.81
2018-12-06T22:57:41.656Z,19.03
2018-12-06T23:00:21.603Z,19.17
2018-12-06T23:02:59.211Z,19.20
2018-12-06T23:05:39.118Z,19.04
2018-12-06T23:08:16.304Z,18.83
2018-12-06T23:10:53.553Z,18.74
2018-12-06T23:13:30.351Z,18.90
2018-12-06T23:16:08.241Z,18.97
2018-12-06T23:18:44.594Z,18.78
2018-12-06T23:21:20.901Z,18.79
2018-12-06T23:23:58.639Z,18.62
2018-12-06T23:26:35.127Z,18.73
2018-12-06T23:29:11.284Z,18.75
2018-12-06T23:31:48.003Z,18.77
2018-12-06T23:34:25.962Z,18.31
2018-12-06T23:37:02.414Z,18.66
2018-12-06T23:39:39.370Z,18.78
2018-12-06T23:42:16.152Z,18.76
2018-12-06T23:44:53.972Z,18.54
2018-12-06T23:47:33.451Z,18.64
2018-12-06T23:50:09.003Z,18.66
2018-12-06T23:52:45.690Z,18.51
2018-12-06T23:55:21.083Z,18.63
2018-12-06T23:57:56.258Z,18.56
